createdAt,value
2022-10-04T00:02:24.616Z,51.90
2022-10-04T00:05:00.020Z,52.00
2022-10-04T00:07:31.683Z,52.80
2022-10-04T00:10:04.423Z,53.60
2022-10-04T00:12:40.078Z,54.00
2022-10-04T00:15:20.657Z,54.00
2022-10-04T00:18:02.558Z,54.40
2022-10-04T00:21:07.730Z,54.60
2022-10-04T00:23:46.795Z,55.50
2022-10-04T00:27:04.274Z,55.60
2022-10-04T00:29:34.486Z,58.40
2022-10-04T00:32:26.752Z,58.50
2022-10-04T00:34:55.433Z,59.80
2022-10-04T00:37:25.969Z,60.20
2022-10-04T00:40:15.467Z,59.50
2022-10-04T00:42:51.564Z,59.60
2022-10-04T00:45:35.116Z,59.80
2022-10-04T00:48:35.233Z,60.10
2022-10-04T00:51:11.919Z,60.60
2022-10-04T00:53:51.265Z,60.20
2022-10-04T00:56:25.448Z,60.60
2022-10-04T00:59:23.547Z,60.10
2022-10-04T01:01:57.605Z,58.80
2022-10-04T01:04:32.728Z,58.40
2022-10-04T01:07:03.497Z,59.10
2022-10-04T01:09:35.794Z,59.00
2022-10-04T01:12:08.544Z,58.50
2022-10-04T01:14:48.600Z,58.40
2022-10-04T01:17:16.617Z,58.40
2022-10-04T01:19:53.165Z,58.30
2022-10-04T01:22:37.551Z,58.50
2022-10-04T01:25:06.081Z,58.50
2022-10-04T01:27:41.429Z,57.10
2022-10-04T01:30:12.344Z,57.10
2022-10-04T01:32:40.952Z,56.50
2022-10-04T01:35:11.222Z,56.00
2022-10-04T01:37:41.068Z,55.50
2022-10-04T01:40:10.712Z,56.20
2022-10-04T01:42:45.883Z,55.70
2022-10-04T01:45:21.226Z,56.10
2022-10-04T01:47:54.783Z,55.40
2022-10-04T01:50:29.268Z,54.90
2022-10-04T01:53:03.604Z,54.40
2022-10-04T01:55:36.701Z,54.40
2022-10-04T01:58:11.177Z,54.40
2022-10-04T02:00:43.575Z,55.70
2022-10-04T02:03:18.573Z,55.10
2022-10-04T02:05:54.731Z,55.00
2022-10-04T02:08:30.584Z,55.10
2022-10-04T02:11:00.644Z,54.50
2022-10-04T02:13:34.696Z,55.50
2022-10-04T02:16:04.008Z,55.00
2022-10-04T02:18:34.195Z,54.90
2022-10-04T02:21:02.876Z,56.00
2022-10-04T02:23:33.806Z,56.00
2022-10-04T02:26:05.816Z,56.40
2022-10-04T02:28:34.718Z,55.50
2022-10-04T02:31:21.082Z,55.10
2022-10-04T02:33:52.883Z,54.70
2022-10-04T02:36:25.259Z,55.70
2022-10-04T02:39:00.803Z,55.70
2022-10-04T02:41:34.256Z,56.10
2022-10-04T02:44:09.531Z,55.80
2022-10-04T02:46:45.268Z,56.40
2022-10-04T02:49:24.656Z,56.60
2022-10-04T02:51:55.982Z,56.80
2022-10-04T02:54:31.973Z,57.50
2022-10-04T02:57:01.252Z,56.90
2022-10-04T02:59:34.676Z,57.80
2022-10-04T03:02:04.056Z,56.40
2022-10-04T03:04:36.151Z,57.00
2022-10-04T03:07:07.530Z,57.40
2022-10-04T03:09:38.796Z,56.90
2022-10-04T03:12:07.467Z,57.60
2022-10-04T03:14:35.867Z,57.50
2022-10-04T03:17:05.094Z,57.60
2022-10-04T03:19:34.708Z,57.30
2022-10-04T03:22:04.791Z,57.20
2022-10-04T03:24:37.044Z,56.40
2022-10-04T03:27:09.673Z,56.20
2022-10-04T03:29:42.848Z,55.90
2022-10-04T03:32:14.514Z,55.50
2022-10-04T03:34:48.163Z,57.40
2022-10-04T03:37:19.269Z,57.70
2022-10-04T03:39:48.998Z,57.50
2022-10-04T03:42:21.893Z,57.60
2022-10-04T03:44:52.233Z,57.60
2022-10-04T03:47:23.281Z,57.50
2022-10-04T03:49:52.281Z,57.70
2022-10-04T03:52:25.353Z,57.60
2022-10-04T03:54:57.891Z,56.10
2022-10-04T03:57:27.535Z,55.80
2022-10-04T03:59:56.163Z,55.80
2022-10-04T04:02:32.883Z,54.40
2022-10-04T04:05:07.426Z,54.60
2022-10-04T04:07:40.094Z,54.80
2022-10-04T04:10:19.254Z,54.40
2022-10-04T04:12:56.108Z,54.60
2022-10-04T04:15:29.773Z,55.10
2022-10-04T04:18:02.609Z,55.90
2022-10-04T04:20:34.318Z,55.20
2022-10-04T04:23:06.599Z,56.10
2022-10-04T04:25:39.408Z,55.40
2022-10-04T04:28:22.094Z,55.50
2022-10-04T04:30:54.638Z,55.70
2022-10-04T04:33:27.821Z,56.80
2022-10-04T04:35:57.618Z,54.20
2022-10-04T04:38:27.165Z,54.00
2022-10-04T04:40:57.384Z,55.40
2022-10-04T04:43:29.158Z,55.60
2022-10-04T04:46:25.610Z,54.20
2022-10-04T04:48:49.747Z,54.10
2022-10-04T04:51:22.775Z,55.40
2022-10-04T04:53:52.384Z,57.70
2022-10-04T04:56:24.385Z,56.80
2022-10-04T04:58:56.983Z,55.20
2022-10-04T05:01:28.107Z,54.30
2022-10-04T05:04:04.566Z,54.00
2022-10-04T05:06:34.592Z,55.30
2022-10-04T05:09:03.003Z,53.80
2022-10-04T05:11:33.986Z,55.20
2022-10-04T05:14:06.922Z,56.40
2022-10-04T05:16:41.085Z,56.40
2022-10-04T05:19:16.803Z,54.00
2022-10-04T05:21:47.777Z,56.10
2022-10-04T05:24:22.916Z,55.80
2022-10-04T05:26:53.453Z,55.50
2022-10-04T05:29:26.205Z,56.30
2022-10-04T05:32:06.268Z,56.00
2022-10-04T05:34:40.113Z,54.10
2022-10-04T05:37:43.966Z,54.50
2022-10-04T05:40:38.034Z,54.30
2022-10-04T05:43:32.741Z,54.00
2022-10-04T05:46:18.291Z,54.30
2022-10-04T05:48:50.116Z,53.50
2022-10-04T05:51:21.215Z,53.80
2022-10-04T05:53:50.938Z,55.30
2022-10-04T05:56:52.057Z,55.90
2022-10-04T05:59:36.115Z,57.20
2022-10-04T06:02:17.893Z,58.00
2022-10-04T06:05:00.930Z,59.10
2022-10-04T06:07:35.702Z,59.70
2022-10-04T06:10:25.980Z,60.40
2022-10-04T06:12:59.010Z,60.80
2022-10-04T06:15:48.826Z,61.40
2022-10-04T06:18:37.779Z,63.20
2022-10-04T06:21:29.231Z,65.10
2022-10-04T06:24:03.527Z,65.90
2022-10-04T06:26:40.443Z,65.30
2022-10-04T06:29:15.206Z,65.00
2022-10-04T06:32:14.647Z,64.10
2022-10-04T06:35:15.801Z,63.50
2022-10-04T06:38:09.140Z,62.90
2022-10-04T06:41:09.775Z,62.60
2022-10-04T06:43:54.496Z,62.00
2022-10-04T06:46:32.219Z,61.40
2022-10-04T06:49:23.652Z,61.20
2022-10-04T06:52:17.367Z,61.30
2022-10-04T06:55:08.313Z,61.40
2022-10-04T06:57:58.943Z,60.70
2022-10-04T07:00:28.524Z,60.70
2022-10-04T07:03:02.688Z,60.40
2022-10-04T07:05:37.584Z,60.10
2022-10-04T07:08:30.919Z,59.70
2022-10-04T07:11:04.084Z,59.80
2022-10-04T07:13:41.147Z,59.70
2022-10-04T07:16:19.617Z,60.40
2022-10-04T07:19:00.756Z,60.60
2022-10-04T07:21:38.305Z,60.50
2022-10-04T07:24:13.293Z,60.00
2022-10-04T07:26:48.328Z,60.60
2022-10-04T07:29:23.793Z,60.10
2022-10-04T07:32:08.616Z,60.20
2022-10-04T07:34:41.799Z,59.80
2022-10-04T07:37:12.952Z,59.60
2022-10-04T07:39:50.446Z,59.80
2022-10-04T07:42:26.370Z,59.70
2022-10-04T07:45:07.003Z,59.70
2022-10-04T07:47:35.177Z,59.00
2022-10-04T07:50:24.008Z,58.60
2022-10-04T07:52:57.845Z,59.30
2022-10-04T07:55:33.195Z,59.40
2022-10-04T07:58:16.861Z,58.20
2022-10-04T08:00:56.254Z,57.90
2022-10-04T08:03:40.522Z,59.00
2022-10-04T08:06:13.366Z,59.20
2022-10-04T08:09:05.334Z,58.00
2022-10-04T08:11:44.723Z,58.20
2022-10-04T08:14:26.808Z,55.20
2022-10-04T08:17:06.729Z,53.80
2022-10-04T08:19:45.650Z,54.70
2022-10-04T08:22:23.598Z,54.90
2022-10-04T08:25:03.636Z,55.30
2022-10-04T08:28:13.028Z,55.00
2022-10-04T08:30:59.257Z,54.90
2022-10-04T08:33:44.294Z,55.50
2022-10-04T08:36:24.466Z,54.80
2022-10-04T08:38:58.026Z,52.90
2022-10-04T08:42:06.583Z,51.70
2022-10-04T08:45:07.957Z,52.30
2022-10-04T08:48:36.230Z,53.20
2022-10-04T08:51:36.026Z,54.10
2022-10-04T08:54:40.366Z,52.40
2022-10-04T08:57:33.120Z,52.00
2022-10-04T09:00:15.542Z,53.00
2022-10-04T09:03:34.626Z,52.60
2022-10-04T09:06:25.887Z,52.40
2022-10-04T09:09:44.382Z,51.90
2022-10-04T09:12:49.291Z,53.30
2022-10-04T09:15:52.515Z,54.80
2022-10-04T09:18:39.075Z,55.00
2022-10-04T09:21:14.238Z,53.60
2022-10-04T09:24:05.462Z,52.20
2022-10-04T09:26:46.061Z,53.30
2022-10-04T09:29:52.383Z,53.00
2022-10-04T09:32:59.337Z,51.80
2022-10-04T09:35:59.836Z,52.00
2022-10-04T09:39:25.133Z,50.60
2022-10-04T09:42:36.372Z,50.80
2022-10-04T09:45:36.119Z,50.00
2022-10-04T09:48:26.097Z,51.30
2022-10-04T09:51:19.386Z,51.30
2022-10-04T09:54:13.393Z,51.30
2022-10-04T09:57:17.337Z,52.00
2022-10-04T10:00:10.109Z,52.50
2022-10-04T10:03:03.594Z,51.40
2022-10-04T10:05:48.227Z,51.30
2022-10-04T10:08:28.325Z,51.40
2022-10-04T10:11:28.960Z,49.40
2022-10-04T10:14:19.576Z,51.80
2022-10-04T10:17:00.989Z,50.80
2022-10-04T10:19:58.166Z,48.40
2022-10-04T10:22:54.718Z,47.50
2022-10-04T10:25:32.424Z,48.70
2022-10-04T10:28:15.280Z,47.10
2022-10-04T10:31:04.241Z,47.40
2022-10-04T10:34:05.036Z,48.00
2022-10-04T10:36:52.017Z,48.20
2022-10-04T10:39:48.553Z,46.00
2022-10-04T10:42:49.215Z,44.20
2022-10-04T10:45:35.388Z,44.40
2022-10-04T10:48:11.389Z,43.90
2022-10-04T10:51:00.139Z,41.60
2022-10-04T10:53:56.236Z,44.20
2022-10-04T10:56:48.450Z,43.80
2022-10-04T10:59:53.074Z,47.00
2022-10-04T11:03:13.177Z,45.10
2022-10-04T11:06:26.040Z,43.20
2022-10-04T11:09:29.448Z,42.50
2022-10-04T11:12:24.488Z,44.30
2022-10-04T11:15:29.490Z,44.80
2022-10-04T11:18:46.434Z,43.40
2022-10-04T11:22:07.573Z,43.90
2022-10-04T11:25:05.410Z,45.30
2022-10-04T11:27:49.154Z,40.60
2022-10-04T11:30:24.904Z,40.80
2022-10-04T11:33:32.469Z,41.80
2022-10-04T11:36:34.209Z,41.50
2022-10-04T11:39:47.119Z,39.50
2022-10-04T11:42:37.590Z,41.20
2022-10-04T11:45:34.223Z,42.60
2022-10-04T11:48:20.114Z,40.60
2022-10-04T11:51:23.349Z,40.40
2022-10-04T11:54:26.144Z,41.40
2022-10-04T11:57:17.290Z,37.90
2022-10-04T11:59:57.029Z,38.40
2022-10-04T12:03:09.571Z,37.50
2022-10-04T12:05:53.791Z,37.90
2022-10-04T12:08:38.683Z,40.30
2022-10-04T12:11:57.097Z,40.80
2022-10-04T12:14:40.646Z,41.10
2022-10-04T12:17:33.829Z,37.20
2022-10-04T12:20:28.924Z,37.80
2022-10-04T12:23:18.307Z,37.20
2022-10-04T12:26:03.499Z,35.90
2022-10-04T12:29:10.119Z,38.40
2022-10-04T12:31:45.299Z,36.90
2022-10-04T12:34:21.354Z,34.10
2022-10-04T12:37:06.973Z,34.40
2022-10-04T12:39:58.509Z,34.70
2022-10-04T12:42:37.533Z,34.50
2022-10-04T12:45:37.142Z,36.30
2022-10-04T12:48:33.169Z,34.90
2022-10-04T12:51:18.542Z,34.20
2022-10-04T12:53:58.486Z,31.80
2022-10-04T12:56:44.667Z,31.80
2022-10-04T12:59:44.845Z,33.00
2022-10-04T13:02:30.950Z,33.50
2022-10-04T13:05:11.771Z,32.00
2022-10-04T13:07:56.543Z,31.30
2022-10-04T13:10:59.279Z,31.80
2022-10-04T13:13:50.012Z,33.10
2022-10-04T13:19:23.566Z,31.00
2022-10-04T13:22:51.487Z,29.80
2022-10-04T13:25:26.023Z,30.00
2022-10-04T13:28:02.372Z,31.10
2022-10-04T13:30:37.751Z,31.80
2022-10-04T13:33:19.909Z,32.40
2022-10-04T13:35:55.796Z,30.90
2022-10-04T13:39:07.452Z,30.70
2022-10-04T13:41:54.327Z,32.20
2022-10-04T13:44:38.493Z,29.70
2022-10-04T13:47:27.072Z,29.10
2022-10-04T13:50:17.562Z,29.60
2022-10-04T13:53:12.967Z,28.80
2022-10-04T13:56:04.296Z,31.70
2022-10-04T13:58:46.814Z,30.30
2022-10-04T14:01:53.887Z,30.70
2022-10-04T14:04:47.616Z,29.10
2022-10-04T14:07:51.342Z,30.30
2022-10-04T14:10:38.350Z,30.60
2022-10-04T14:13:42.962Z,29.40
2022-10-04T14:16:27.080Z,29.80
2022-10-04T14:19:49.426Z,29.60
2022-10-04T14:22:50.635Z,29.30
2022-10-04T14:25:45.395Z,30.20
2022-10-04T14:28:48.857Z,29.60
2022-10-04T14:31:52.181Z,29.50
2022-10-04T14:34:48.170Z,29.60
2022-10-04T14:37:42.896Z,30.30
2022-10-04T14:40:40.126Z,30.00
2022-10-04T14:43:46.795Z,31.00
2022-10-04T14:46:22.713Z,30.60
2022-10-04T14:49:11.201Z,30.70
2022-10-04T14:52:18.262Z,30.80
2022-10-04T14:54:53.975Z,31.50
2022-10-04T14:57:46.555Z,31.10
2022-10-04T15:00:21.341Z,31.80
2022-10-04T15:03:13.437Z,29.70
2022-10-04T15:06:21.798Z,31.20
2022-10-04T15:09:35.406Z,30.50
2022-10-04T15:13:10.605Z,29.80
2022-10-04T15:15:54.485Z,30.80
2022-10-04T15:18:46.263Z,30.70
2022-10-04T15:21:53.110Z,30.60
2022-10-04T15:24:48.085Z,30.80
2022-10-04T15:27:50.461Z,31.70
2022-10-04T15:30:24.365Z,31.70
2022-10-04T15:33:16.557Z,30.60
2022-10-04T15:36:08.445Z,30.80
2022-10-04T15:39:05.054Z,31.10
2022-10-04T15:41:47.076Z,31.10
2022-10-04T15:44:34.548Z,33.90
2022-10-04T15:47:15.645Z,34.90
2022-10-04T15:50:18.306Z,35.50
2022-10-04T15:53:20.441Z,33.10
2022-10-04T15:56:43.489Z,33.00
2022-10-04T15:59:42.960Z,33.30
2022-10-04T16:02:50.199Z,35.60
2022-10-04T16:05:40.478Z,35.20
2022-10-04T16:08:53.603Z,36.10
2022-10-04T16:11:58.497Z,35.80
2022-10-04T16:15:01.679Z,35.10
2022-10-04T16:18:26.946Z,35.80
2022-10-04T16:21:08.417Z,37.10
2022-10-04T16:23:40.254Z,37.50
2022-10-04T16:26:11.873Z,37.40
2022-10-04T16:29:05.160Z,37.30
2022-10-04T16:31:52.209Z,37.60
2022-10-04T16:34:41.849Z,37.40
2022-10-04T16:37:40.711Z,37.60
2022-10-04T16:40:27.877Z,38.10
2022-10-04T16:43:01.313Z,39.30
2022-10-04T16:45:50.555Z,40.70
2022-10-04T16:48:33.749Z,40.70
2022-10-04T16:51:50.673Z,41.20
2022-10-04T16:54:54.997Z,42.40
2022-10-04T16:57:24.619Z,42.10
2022-10-04T17:00:00.722Z,44.00
2022-10-04T17:03:20.935Z,44.40
2022-10-04T17:06:14.907Z,44.90
2022-10-04T17:09:32.104Z,46.30
2022-10-04T17:12:50.955Z,47.10
2022-10-04T17:16:13.951Z,47.40
2022-10-04T17:18:52.607Z,48.50
2022-10-04T17:21:32.232Z,50.00
2022-10-04T17:24:19.547Z,50.40
2022-10-04T17:27:06.296Z,50.20
2022-10-04T17:29:49.714Z,48.90
2022-10-04T17:32:30.050Z,48.30
2022-10-04T17:35:14.239Z,48.90
2022-10-04T17:37:50.504Z,47.70
2022-10-04T17:40:40.279Z,49.20
2022-10-04T17:43:16.895Z,50.20
2022-10-04T17:45:59.937Z,51.20
2022-10-04T17:49:04.787Z,50.70
2022-10-04T17:52:21.524Z,51.80
2022-10-04T17:55:40.990Z,50.50
2022-10-04T17:58:25.616Z,49.00
2022-10-04T18:01:10.736Z,49.10
2022-10-04T18:04:07.582Z,50.20
2022-10-04T18:07:16.026Z,50.90
2022-10-04T18:09:49.397Z,50.60
2022-10-04T18:12:29.134Z,52.20
2022-10-04T18:15:04.137Z,52.30
2022-10-04T18:17:57.642Z,53.40
2022-10-04T18:20:46.743Z,53.60
2022-10-04T18:23:18.979Z,53.80
2022-10-04T18:25:49.131Z,54.70
2022-10-04T18:28:22.967Z,54.20
2022-10-04T18:31:43.147Z,54.70
2022-10-04T18:34:38.682Z,54.60
2022-10-04T18:37:21.844Z,53.30
2022-10-04T18:39:55.569Z,53.20
2022-10-04T18:42:34.359Z,53.50
2022-10-04T18:45:20.287Z,53.40
2022-10-04T18:47:54.519Z,53.60
2022-10-04T18:50:38.663Z,53.40
2022-10-04T18:53:43.856Z,53.10
2022-10-04T18:56:17.076Z,53.20
2022-10-04T18:59:22.995Z,54.50
2022-10-04T19:02:05.387Z,54.60
2022-10-04T19:05:11.313Z,55.90
2022-10-04T19:08:49.740Z,55.90
2022-10-04T19:11:25.591Z,54.90
2022-10-04T19:14:08.404Z,55.50
2022-10-04T19:18:08.015Z,55.60
2022-10-04T19:21:18.885Z,55.70
2022-10-04T19:24:57.003Z,55.80
2022-10-04T19:28:38.484Z,56.40
2022-10-04T19:31:24.503Z,56.00
2022-10-04T19:34:03.065Z,55.40
2022-10-04T19:37:20.752Z,57.00
2022-10-04T19:40:04.415Z,55.70
2022-10-04T19:42:54.904Z,56.60
2022-10-04T19:45:37.420Z,56.50
2022-10-04T19:49:16.422Z,55.70
2022-10-04T19:52:37.824Z,55.90
2022-10-04T19:55:27.919Z,55.50
2022-10-04T19:58:07.111Z,56.20
2022-10-04T20:01:17.037Z,55.20
2022-10-04T20:04:31.789Z,55.30
2022-10-04T20:07:05.082Z,54.20
2022-10-04T20:09:51.859Z,53.80
2022-10-04T20:12:35.925Z,53.60
2022-10-04T20:15:45.520Z,53.20
2022-10-04T20:18:52.947Z,53.50
2022-10-04T20:21:41.743Z,54.40
2022-10-04T20:25:08.316Z,54.00
2022-10-04T20:28:04.227Z,54.20
2022-10-04T20:30:59.051Z,55.00
2022-10-04T20:33:54.463Z,55.00
2022-10-04T20:37:46.499Z,54.90
2022-10-04T20:40:49.605Z,54.70
2022-10-04T20:43:30.891Z,55.10
2022-10-04T20:46:02.447Z,57.50
2022-10-04T20:48:39.942Z,56.10
2022-10-04T20:51:11.185Z,56.70
2022-10-04T20:53:47.018Z,55.60
2022-10-04T20:56:24.876Z,54.70
2022-10-04T20:58:56.989Z,54.50
2022-10-04T21:01:42.675Z,54.30
2022-10-04T21:04:15.593Z,53.60
2022-10-04T21:07:12.025Z,54.70
2022-10-04T21:10:24.426Z,54.10
2022-10-04T21:13:49.647Z,55.10
2022-10-04T21:17:24.915Z,56.00
2022-10-04T21:20:20.012Z,55.10
2022-10-04T21:22:53.485Z,53.50
2022-10-04T21:25:36.170Z,52.50
2022-10-04T21:28:30.597Z,53.20
2022-10-04T21:31:07.657Z,52.90
2022-10-04T21:33:49.484Z,52.40
2022-10-04T21:36:59.224Z,52.00
2022-10-04T21:40:00.050Z,52.60
2022-10-04T21:42:34.152Z,52.40
2022-10-04T21:45:25.302Z,53.40
2022-10-04T21:48:11.391Z,54.20
2022-10-04T21:50:52.908Z,53.70
2022-10-04T21:53:36.263Z,53.20
2022-10-04T21:56:10.522Z,53.10
2022-10-04T21:59:03.659Z,53.00
2022-10-04T22:02:09.722Z,52.80
2022-10-04T22:05:04.275Z,53.50
2022-10-04T22:08:24.222Z,53.40
2022-10-04T22:11:28.136Z,53.20
2022-10-04T22:14:18.609Z,52.80
2022-10-04T22:17:09.399Z,53.20
2022-10-04T22:19:49.522Z,53.90
2022-10-04T22:22:34.328Z,54.50
2022-10-04T22:25:15.570Z,53.80
2022-10-04T22:27:47.621Z,53.80
2022-10-04T22:30:28.146Z,53.80
2022-10-04T22:32:58.729Z,53.90
2022-10-04T22:36:00.542Z,55.40
2022-10-04T22:39:09.083Z,54.90
2022-10-04T22:41:45.501Z,54.40
2022-10-04T22:44:21.639Z,54.70
2022-10-04T22:46:52.981Z,54.20
2022-10-04T22:49:27.686Z,53.90
2022-10-04T22:52:06.012Z,53.10
2022-10-04T22:54:45.532Z,53.20
2022-10-04T22:57:22.717Z,52.20
2022-10-04T22:59:56.784Z,52.20
2022-10-04T23:02:31.512Z,51.80
2022-10-04T23:05:10.681Z,50.80
2022-10-04T23:07:39.332Z,51.10
2022-10-04T23:10:16.979Z,49.90
2022-10-04T23:12:54.262Z,50.00
2022-10-04T23:15:24.141Z,51.20
2022-10-04T23:17:56.338Z,51.60
2022-10-04T23:20:26.468Z,51.70
2022-10-04T23:23:01.628Z,52.10
2022-10-04T23:25:33.959Z,53.00
2022-10-04T23:28:07.335Z,53.60
2022-10-04T23:30:37.313Z,53.10
2022-10-04T23:33:14.983Z,52.30
2022-10-04T23:35:45.692Z,52.40
2022-10-04T23:38:20.743Z,52.00
2022-10-04T23:40:49.069Z,52.60
2022-10-04T23:43:25.104Z,52.50
2022-10-04T23:45:56.706Z,52.70
2022-10-04T23:48:28.182Z,52.70
2022-10-04T23:50:59.680Z,51.60
2022-10-04T23:53:30.468Z,51.20
2022-10-04T23:56:05.706Z,50.90
2022-10-04T23:58:37.385Z,50.80
